Aviation Digital Data Service (ADDS)

Output produced by METARs form (1656 UTC 16 June 2019)
found at http://www.aviationweather.gov/metar/data/
 
Forecast for: KDLH (DULUTH , MN, US)
Text: KDLH 161134Z 1612/1712 09010G15KT P6SM VCSH OVC070
Forecast period: 1200 to 1900 UTC 16 June 2019
Forecast type: FROM: standard forecast or significant change
Winds: from the E (90 degrees) at 12 MPH (10 knots; 5.1 m/s)
gusting to 17 MPH (15 knots; 7.7 m/s)
Visibility: 6 or more miles 10+ km)
Ceiling: 7000 feet AGL
Clouds: overcast cloud deck at 7000 feet AGL
Weather: VCSH  (showers in vicinity)
Text: FM161900 08010G16KT P6SM BKN100
Forecast period: 1900 UTC 16 June 2019 to 0200 UTC 17 June 2019
Forecast type: FROM: standard forecast or significant change
Winds: from the E (80 degrees) at 12 MPH (10 knots; 5.1 m/s)
gusting to 18 MPH (16 knots; 8.2 m/s)
Visibility: 6 or more miles 10+ km)
Ceiling: 10000 feet AGL
Clouds: broken clouds at 10000 feet AGL
Weather: no significant weather forecast for this period
Text: FM170200 VRB04KT P6SM BKN060
Forecast period: 0200 to 1200 UTC 17 June 2019
Forecast type: FROM: standard forecast or significant change
Winds: variable direction winds at 5 MPH (4 knots; 2.1 m/s)
Visibility: 6 or more miles 10+ km)
Ceiling: 6000 feet AGL
Clouds: broken clouds at 6000 feet AGL
Weather: no significant weather forecast for this period